createdAt,value
2018-03-23T00:02:09.231Z,2.27
2018-03-23T00:04:37.158Z,2.24
2018-03-23T00:07:04.785Z,2.25
2018-03-23T00:09:32.412Z,2.24
2018-03-23T00:12:00.033Z,2.29
2018-03-23T00:14:27.673Z,2.31
2018-03-23T00:16:55.764Z,2.35
2018-03-23T00:19:23.611Z,2.37
2018-03-23T00:21:51.258Z,2.35
2018-03-23T00:24:18.833Z,2.37
2018-03-23T00:26:46.455Z,2.41
2018-03-23T00:29:14.202Z,2.36
2018-03-23T00:31:41.842Z,2.35
2018-03-23T00:34:09.473Z,2.38
2018-03-23T00:36:37.072Z,2.37
2018-03-23T00:39:05.561Z,2.35
2018-03-23T00:41:33.505Z,2.33
2018-03-23T00:44:01.087Z,2.28
2018-03-23T00:46:28.672Z,2.32
2018-03-23T00:48:56.600Z,2.34
2018-03-23T00:51:24.184Z,2.35
2018-03-23T00:53:51.777Z,2.37
2018-03-23T00:56:19.508Z,2.37
2018-03-23T00:58:47.075Z,2.35
2018-03-23T01:01:14.682Z,2.34
2018-03-23T01:03:42.325Z,2.31
2018-03-23T01:06:09.907Z,2.28
2018-03-23T01:08:37.554Z,2.28
2018-03-23T01:11:06.156Z,2.27
2018-03-23T01:13:33.737Z,2.35
2018-03-23T01:16:01.404Z,2.34
2018-03-23T01:18:29.045Z,2.33
2018-03-23T01:20:56.705Z,2.39
2018-03-23T01:23:24.293Z,2.37
2018-03-23T01:25:51.947Z,2.39
2018-03-23T01:28:19.533Z,2.41
2018-03-23T01:30:47.126Z,2.41
2018-03-23T01:33:15.032Z,2.47
2018-03-23T01:35:42.669Z,2.52
2018-03-23T01:38:10.273Z,2.53
2018-03-23T01:40:37.887Z,2.54
2018-03-23T01:43:05.544Z,2.57
2018-03-23T01:45:34.050Z,2.53
2018-03-23T01:48:01.712Z,2.55
2018-03-23T01:50:29.366Z,2.53
2018-03-23T01:52:56.944Z,2.56
2018-03-23T01:55:24.592Z,2.60
2018-03-23T01:57:52.170Z,2.63
2018-03-23T02:00:19.758Z,2.65
2018-03-23T02:02:47.771Z,2.67
2018-03-23T02:05:15.368Z,2.70
2018-03-23T02:07:42.963Z,2.74
2018-03-23T02:10:10.601Z,2.77
2018-03-23T02:12:38.238Z,2.82
2018-03-23T02:15:05.906Z,2.84
2018-03-23T02:17:33.984Z,2.87
2018-03-23T02:20:01.646Z,2.92
2018-03-23T02:22:29.231Z,2.99
2018-03-23T02:24:56.927Z,3.05
2018-03-23T02:27:24.504Z,3.07
2018-03-23T02:29:52.088Z,2.97
2018-03-23T02:32:19.961Z,2.99
2018-03-23T02:34:47.539Z,3.01
2018-03-23T02:37:15.167Z,3.08
2018-03-23T02:39:42.784Z,3.15
2018-03-23T02:42:10.394Z,3.23
2018-03-23T02:44:37.973Z,3.26
2018-03-23T02:47:05.856Z,3.30
2018-03-23T02:49:33.441Z,3.23
2018-03-23T02:52:01.042Z,3.27
2018-03-23T02:54:28.682Z,3.30
2018-03-23T02:56:56.245Z,3.33
2018-03-23T02:59:23.802Z,3.33
2018-03-23T03:01:51.412Z,3.32
2018-03-23T03:04:19.489Z,3.34
2018-03-23T03:06:47.117Z,3.32
2018-03-23T03:09:15.002Z,3.24
2018-03-23T03:11:43.232Z,3.19
2018-03-23T03:14:10.872Z,3.18
2018-03-23T03:16:38.525Z,3.14
2018-03-23T03:19:06.178Z,3.16
2018-03-23T03:21:33.746Z,3.16
2018-03-23T03:24:01.592Z,3.20
2018-03-23T03:26:29.214Z,3.25
2018-03-23T03:28:56.787Z,3.24
2018-03-23T03:31:24.442Z,3.26
2018-03-23T03:33:52.000Z,3.29
2018-03-23T03:36:19.550Z,3.33
2018-03-23T03:38:47.199Z,3.35
2018-03-23T03:41:14.750Z,3.37
2018-03-23T03:43:42.307Z,3.38
2018-03-23T03:46:10.185Z,3.39
2018-03-23T03:48:38.405Z,3.43
2018-03-23T03:51:05.972Z,3.45
2018-03-23T03:53:33.604Z,3.48
2018-03-23T03:56:01.234Z,3.50
2018-03-23T03:58:28.806Z,3.52
2018-03-23T04:00:56.434Z,3.49
2018-03-23T04:03:23.985Z,3.48
2018-03-23T04:05:51.551Z,3.46
2018-03-23T04:08:19.404Z,3.46
2018-03-23T04:10:46.978Z,3.45
2018-03-23T04:13:14.532Z,3.40
2018-03-23T04:15:42.181Z,3.37
2018-03-23T04:18:09.738Z,3.38
2018-03-23T04:20:37.452Z,3.40
2018-03-23T04:23:05.063Z,3.44
2018-03-23T04:25:32.628Z,3.40
2018-03-23T04:28:00.206Z,3.35
2018-03-23T04:30:28.131Z,3.36
2018-03-23T04:32:55.861Z,3.36
2018-03-23T04:35:23.436Z,3.39
2018-03-23T04:37:51.077Z,3.39
2018-03-23T04:40:18.640Z,3.37
2018-03-23T04:42:46.275Z,3.40
2018-03-23T04:45:14.152Z,3.46
2018-03-23T04:47:41.737Z,3.48
2018-03-23T04:50:09.349Z,3.54
2018-03-23T04:52:36.961Z,3.57
2018-03-23T04:55:04.535Z,3.63
2018-03-23T04:57:32.114Z,3.68
2018-03-23T04:59:59.726Z,3.72
2018-03-23T05:02:27.297Z,3.76
2018-03-23T05:04:54.867Z,3.78
2018-03-23T05:07:23.907Z,3.83
2018-03-23T05:09:51.488Z,3.89
2018-03-23T05:12:19.048Z,3.95
2018-03-23T05:14:46.684Z,4.01
2018-03-23T05:17:14.236Z,4.05
2018-03-23T05:19:41.873Z,4.07
2018-03-23T05:22:09.864Z,4.08
2018-03-23T05:24:37.482Z,4.16
2018-03-23T05:27:05.094Z,4.22
2018-03-23T05:29:32.853Z,4.30
2018-03-23T05:32:00.478Z,4.38
2018-03-23T05:34:28.046Z,4.42
2018-03-23T05:36:55.677Z,4.47
2018-03-23T05:39:23.250Z,4.54
2018-03-23T05:41:50.825Z,4.62
2018-03-23T05:44:18.429Z,4.70
2018-03-23T05:46:45.991Z,4.78
2018-03-23T05:49:13.569Z,4.87
2018-03-23T05:51:41.221Z,4.92
2018-03-23T05:54:08.778Z,5.00
2018-03-23T05:56:36.344Z,5.06
2018-03-23T05:59:04.003Z,5.13
2018-03-23T06:01:31.609Z,5.19
2018-03-23T06:04:00.387Z,5.21
2018-03-23T06:06:28.260Z,5.11
2018-03-23T06:08:55.845Z,4.95
2018-03-23T06:11:23.434Z,4.89
2018-03-23T06:13:51.127Z,4.93
2018-03-23T06:16:20.971Z,5.02
2018-03-23T06:18:48.590Z,5.08
2018-03-23T06:21:16.468Z,5.09
2018-03-23T06:23:44.296Z,5.08
2018-03-23T06:26:11.961Z,5.12
2018-03-23T06:28:39.650Z,5.13
2018-03-23T06:31:07.230Z,5.18
2018-03-23T06:33:34.810Z,5.27
2018-03-23T06:36:02.462Z,5.31
2018-03-23T06:38:30.024Z,5.40
2018-03-23T06:40:57.638Z,5.52
2018-03-23T06:43:25.263Z,5.55
2018-03-23T06:45:52.874Z,5.63
2018-03-23T06:48:20.786Z,5.61
2018-03-23T06:50:48.521Z,5.66
2018-03-23T06:53:16.093Z,5.66
2018-03-23T06:55:43.666Z,5.68
2018-03-23T06:58:11.528Z,5.71
2018-03-23T07:00:39.183Z,5.78
2018-03-23T07:03:06.777Z,5.82
2018-03-23T07:05:34.474Z,5.81
2018-03-23T07:08:02.050Z,5.86
2018-03-23T07:10:29.634Z,5.92
2018-03-23T07:12:57.257Z,5.90
2018-03-23T07:15:24.921Z,5.83
2018-03-23T07:17:52.584Z,5.85
2018-03-23T07:20:20.239Z,5.87
2018-03-23T07:22:47.854Z,5.90
2018-03-23T07:25:15.603Z,5.98
2018-03-23T07:27:43.221Z,6.05
2018-03-23T07:30:10.796Z,6.08
2018-03-23T07:32:38.466Z,6.14
2018-03-23T07:35:06.091Z,6.23
2018-03-23T07:37:34.558Z,6.29
2018-03-23T07:40:02.154Z,6.35
2018-03-23T07:42:29.830Z,6.41
2018-03-23T07:44:57.409Z,6.45
2018-03-23T07:47:24.990Z,6.53
2018-03-23T07:49:52.619Z,6.62
2018-03-23T07:52:20.716Z,6.63
2018-03-23T07:54:48.318Z,6.49
2018-03-23T07:57:16.248Z,6.35
2018-03-23T07:59:43.875Z,6.27
2018-03-23T08:02:11.474Z,6.26
2018-03-23T08:04:39.122Z,6.30
2018-03-23T08:07:06.804Z,6.34
2018-03-23T08:09:34.440Z,6.31
2018-03-23T08:12:02.088Z,6.22
2018-03-23T08:16:56.535Z,6.03
2018-03-23T08:19:24.184Z,6.01
2018-03-23T08:21:52.617Z,5.98
2018-03-23T08:24:20.386Z,5.92
2018-03-23T08:26:48.143Z,5.87
2018-03-23T08:29:15.726Z,5.72
2018-03-23T08:31:43.300Z,5.67
2018-03-23T08:34:11.208Z,5.67
2018-03-23T08:36:38.794Z,5.78
2018-03-23T08:39:06.419Z,5.88
2018-03-23T08:41:34.069Z,5.92
2018-03-23T08:44:01.627Z,5.95
2018-03-23T08:46:29.218Z,6.05
2018-03-23T08:48:57.154Z,6.19
2018-03-23T08:51:24.745Z,6.33
2018-03-23T08:53:52.337Z,6.36
2018-03-23T08:56:19.969Z,6.38
2018-03-23T08:58:47.543Z,6.49
2018-03-23T09:01:15.140Z,6.57
2018-03-23T09:03:42.816Z,6.62
2018-03-23T09:06:10.466Z,6.59
2018-03-23T09:08:38.603Z,6.59
2018-03-23T09:11:06.449Z,6.57
2018-03-23T09:13:34.066Z,6.56
2018-03-23T09:16:01.663Z,6.62
2018-03-23T09:18:29.280Z,6.73
2018-03-23T09:20:56.937Z,6.74
2018-03-23T09:23:24.520Z,6.75
2018-03-23T09:25:52.195Z,6.80
2018-03-23T09:28:19.949Z,6.90
2018-03-23T09:30:47.520Z,7.01
2018-03-23T09:33:15.138Z,7.10
2018-03-23T09:35:42.749Z,7.14
2018-03-23T09:38:10.370Z,7.25
2018-03-23T09:40:37.977Z,7.35
2018-03-23T09:43:05.558Z,7.47
2018-03-23T09:45:33.117Z,7.51
2018-03-23T09:48:00.831Z,7.57
2018-03-23T09:50:28.402Z,7.61
2018-03-23T09:52:56.009Z,7.72
2018-03-23T09:55:23.951Z,7.88
2018-03-23T09:57:51.517Z,8.01
2018-03-23T10:00:19.116Z,8.13
2018-03-23T10:02:46.762Z,8.02
2018-03-23T10:05:14.337Z,7.90
2018-03-23T10:07:41.944Z,7.98
2018-03-23T10:10:09.569Z,7.98
2018-03-23T10:12:37.145Z,7.79
2018-03-23T10:15:04.754Z,7.55
2018-03-23T10:17:32.643Z,7.47
2018-03-23T10:20:00.216Z,7.37
2018-03-23T10:22:27.866Z,7.35
2018-03-23T10:24:55.484Z,7.29
2018-03-23T10:27:23.100Z,7.25
2018-03-23T10:29:50.858Z,7.22
2018-03-23T10:32:19.128Z,7.19
2018-03-23T10:34:46.680Z,7.05
2018-03-23T10:37:14.266Z,6.99
2018-03-23T10:39:41.990Z,6.95
2018-03-23T10:42:09.569Z,6.91
2018-03-23T10:44:37.150Z,6.79
2018-03-23T10:47:04.794Z,6.71
2018-03-23T10:49:32.393Z,6.56
2018-03-23T10:51:59.966Z,6.52
2018-03-23T10:54:27.599Z,6.49
2018-03-23T10:56:55.230Z,6.54
2018-03-23T10:59:22.816Z,6.59
2018-03-23T11:01:55.982Z,6.46
2018-03-23T11:04:23.575Z,6.42
2018-03-23T11:06:51.152Z,6.45
2018-03-23T11:09:18.833Z,6.57
2018-03-23T11:11:46.447Z,6.68
2018-03-23T11:14:14.016Z,6.87
2018-03-23T11:16:41.633Z,7.02
2018-03-23T11:19:09.197Z,7.03
2018-03-23T11:21:36.840Z,7.12
2018-03-23T11:24:04.498Z,7.22
2018-03-23T11:26:32.080Z,7.33
2018-03-23T11:28:59.645Z,7.43
2018-03-23T11:31:27.385Z,7.52
2018-03-23T11:33:54.965Z,7.66
2018-03-23T11:36:22.563Z,7.70
2018-03-23T11:38:50.205Z,7.79
2018-03-23T11:41:18.691Z,7.77
2018-03-23T11:43:46.263Z,7.88
2018-03-23T11:46:13.918Z,8.05
2018-03-23T11:48:42.365Z,8.24
2018-03-23T11:51:09.956Z,8.47
2018-03-23T11:53:37.954Z,8.62
2018-03-23T11:56:05.549Z,8.78
2018-03-23T11:58:33.124Z,8.80
2018-03-23T12:01:00.808Z,8.83
2018-03-23T12:03:28.421Z,8.89
2018-03-23T12:05:56.011Z,8.89
2018-03-23T12:08:23.697Z,8.98
2018-03-23T12:10:51.298Z,9.04
2018-03-23T12:13:18.882Z,9.02
2018-03-23T12:15:46.566Z,8.91
2018-03-23T12:18:14.145Z,8.90
2018-03-23T12:20:41.732Z,8.93
2018-03-23T12:23:09.394Z,9.00
2018-03-23T12:25:36.979Z,9.15
2018-03-23T12:28:04.558Z,9.27
2018-03-23T12:30:32.490Z,9.58
2018-03-23T12:33:00.604Z,9.92
2018-03-23T12:35:28.248Z,10.07
2018-03-23T12:37:55.915Z,10.14
2018-03-23T12:40:23.513Z,10.44
2018-03-23T12:42:51.111Z,10.54
2018-03-23T12:45:18.822Z,10.77
2018-03-23T12:47:46.406Z,10.72
2018-03-23T12:50:13.987Z,10.72
2018-03-23T12:52:41.612Z,10.55
2018-03-23T12:55:09.193Z,10.35
2018-03-23T12:57:36.799Z,10.45
2018-03-23T13:00:04.785Z,10.26
2018-03-23T13:02:32.366Z,10.28
2018-03-23T13:04:59.946Z,10.11
2018-03-23T13:07:27.572Z,9.96
2018-03-23T13:09:55.176Z,9.59
2018-03-23T13:12:22.770Z,9.36
2018-03-23T13:14:50.481Z,9.28
2018-03-23T13:17:18.077Z,9.26
2018-03-23T13:19:45.652Z,9.29
2018-03-23T13:22:13.317Z,9.15
2018-03-23T13:24:41.005Z,9.12
2018-03-23T13:27:08.634Z,9.08
2018-03-23T13:29:36.301Z,9.00
2018-03-23T13:32:03.917Z,9.01
2018-03-23T13:34:31.665Z,9.03
2018-03-23T13:36:59.312Z,9.13
2018-03-23T13:39:26.984Z,9.35
2018-03-23T13:41:55.406Z,9.47
2018-03-23T13:44:23.101Z,9.36
2018-03-23T13:46:50.698Z,9.26
2018-03-23T13:49:18.334Z,9.21
2018-03-23T13:51:46.003Z,9.23
2018-03-23T13:54:14.150Z,9.25
2018-03-23T13:56:41.766Z,9.29
2018-03-23T13:59:15.704Z,9.33
2018-03-23T14:01:43.376Z,9.37
2018-03-23T14:04:11.046Z,9.39
2018-03-23T14:06:38.803Z,9.32
2018-03-23T14:09:06.511Z,9.19
2018-03-23T14:11:34.117Z,9.16
2018-03-23T14:14:01.811Z,8.87
2018-03-23T14:16:29.436Z,8.76
2018-03-23T14:18:57.179Z,8.34
2018-03-23T14:21:24.877Z,8.31
2018-03-23T14:23:52.509Z,8.06
2018-03-23T14:26:20.235Z,8.02
2018-03-23T14:28:48.037Z,7.96
2018-03-23T14:31:15.689Z,7.97
2018-03-23T14:33:43.431Z,8.07
2018-03-23T14:36:11.515Z,8.06
2018-03-23T14:38:39.143Z,8.10
2018-03-23T14:41:06.826Z,7.99
2018-03-23T14:43:34.471Z,7.89
2018-03-23T14:46:02.089Z,7.99
2018-03-23T14:48:29.720Z,7.98
2018-03-23T14:50:57.442Z,7.97
2018-03-23T14:53:25.195Z,8.12
2018-03-23T14:55:52.793Z,8.20
2018-03-23T14:58:20.452Z,8.30
2018-03-23T15:00:48.058Z,8.33
2018-03-23T15:03:15.722Z,8.35
2018-03-23T15:05:43.850Z,8.42
2018-03-23T15:08:11.486Z,8.35
2018-03-23T15:10:39.155Z,8.26
2018-03-23T15:13:06.831Z,8.04
2018-03-23T15:15:34.530Z,7.76
2018-03-23T15:18:02.192Z,7.64
2018-03-23T15:20:29.862Z,7.37
2018-03-23T15:22:57.466Z,7.03
2018-03-23T15:25:25.108Z,6.98
2018-03-23T15:27:53.038Z,6.83
2018-03-23T15:32:47.615Z,6.97
2018-03-23T15:35:15.319Z,7.02
2018-03-23T15:37:43.098Z,7.04
2018-03-23T15:40:11.295Z,7.01
2018-03-23T15:42:38.926Z,7.00
2018-03-23T15:45:06.586Z,7.00
2018-03-23T15:47:34.256Z,6.95
2018-03-23T15:50:01.972Z,6.92
2018-03-23T15:52:29.739Z,6.88
2018-03-23T15:54:57.677Z,6.87
2018-03-23T15:57:25.549Z,6.72
2018-03-23T15:59:53.283Z,6.68
2018-03-23T16:02:21.185Z,6.70
2018-03-23T16:04:49.155Z,6.68
2018-03-23T16:07:16.958Z,6.69
2018-03-23T16:09:44.802Z,6.64
2018-03-23T16:12:12.701Z,6.55
2018-03-23T16:14:40.470Z,6.42
2018-03-23T16:17:08.293Z,6.29
2018-03-23T16:19:35.991Z,6.16
2018-03-23T16:22:03.881Z,6.08
2018-03-23T16:24:32.218Z,6.03
2018-03-23T16:27:00.128Z,5.99
2018-03-23T16:29:28.015Z,5.99
2018-03-23T16:31:55.948Z,5.90
2018-03-23T16:34:24.181Z,5.86
2018-03-23T16:36:52.924Z,5.84
2018-03-23T16:39:20.895Z,5.82
2018-03-23T16:41:48.839Z,5.83
2018-03-23T16:44:16.809Z,5.84
2018-03-23T16:46:44.717Z,5.80
2018-03-23T16:49:12.657Z,5.74
2018-03-23T16:51:40.529Z,5.65
2018-03-23T16:54:08.450Z,5.54
2018-03-23T16:56:36.376Z,5.46
2018-03-23T16:59:04.271Z,5.34
2018-03-23T17:01:32.160Z,5.31
2018-03-23T17:04:00.399Z,5.33
2018-03-23T17:06:29.198Z,5.29
2018-03-23T17:08:57.040Z,5.28
2018-03-23T17:11:25.214Z,5.29
2018-03-23T17:13:53.233Z,5.22
2018-03-23T17:16:25.072Z,5.23
2018-03-23T17:18:52.985Z,5.20
2018-03-23T17:21:20.876Z,5.21
2018-03-23T17:23:48.766Z,5.13
2018-03-23T17:26:16.712Z,5.09
2018-03-23T17:28:44.621Z,5.06
2018-03-23T17:31:12.585Z,5.10
2018-03-23T17:33:40.571Z,5.13
2018-03-23T17:36:08.507Z,5.18
2018-03-23T17:38:36.451Z,5.19
2018-03-23T17:41:05.005Z,5.20
2018-03-23T17:43:32.907Z,5.19
2018-03-23T17:46:00.844Z,5.17
2018-03-23T17:48:28.877Z,5.12
2018-03-23T17:50:56.763Z,5.12
2018-03-23T17:53:24.663Z,5.13
2018-03-23T17:55:53.403Z,5.16
2018-03-23T17:58:21.915Z,5.16
2018-03-23T18:00:49.815Z,5.17
2018-03-23T18:03:17.859Z,5.21
2018-03-23T18:05:45.758Z,5.25
2018-03-23T18:08:13.718Z,5.31
2018-03-23T18:10:42.556Z,5.34
2018-03-23T18:13:10.447Z,5.36
2018-03-23T18:15:38.338Z,5.39
2018-03-23T18:18:06.287Z,5.42
2018-03-23T18:20:34.184Z,5.40
2018-03-23T18:23:02.713Z,5.41
2018-03-23T18:25:30.635Z,5.44
2018-03-23T18:27:58.494Z,5.45
2018-03-23T18:30:26.378Z,5.39
2018-03-23T18:32:54.313Z,5.40
2018-03-23T18:35:22.247Z,5.42
2018-03-23T18:37:50.130Z,5.46
2018-03-23T18:40:18.152Z,5.49
2018-03-23T18:42:46.448Z,5.50
2018-03-23T18:45:14.376Z,5.52
2018-03-23T18:47:42.622Z,5.57
2018-03-23T18:50:10.587Z,5.63
2018-03-23T18:52:38.519Z,5.63
2018-03-23T18:55:06.553Z,5.63
2018-03-23T18:57:34.520Z,5.62
2018-03-23T19:00:02.566Z,5.64
2018-03-23T19:02:30.523Z,5.62
2018-03-23T19:04:58.399Z,5.58
2018-03-23T19:07:26.331Z,5.54
2018-03-23T19:09:54.265Z,5.51
2018-03-23T19:12:22.202Z,5.53
2018-03-23T19:14:50.191Z,5.53
2018-03-23T19:17:18.452Z,5.54
2018-03-23T19:19:46.459Z,5.52
2018-03-23T19:22:15.268Z,5.53
2018-03-23T19:24:43.212Z,5.52
2018-03-23T19:27:11.202Z,5.52
2018-03-23T19:29:39.139Z,5.50
2018-03-23T19:32:07.157Z,5.39
2018-03-23T19:34:35.162Z,5.24
2018-03-23T19:37:03.051Z,5.16
2018-03-23T19:39:31.337Z,5.13
2018-03-23T19:41:59.565Z,5.12
2018-03-23T19:44:27.684Z,5.08
2018-03-23T19:46:56.683Z,5.05
2018-03-23T19:49:24.656Z,5.05
2018-03-23T19:51:52.574Z,5.09
2018-03-23T19:54:20.535Z,5.13
2018-03-23T19:56:48.407Z,5.19
2018-03-23T19:59:16.321Z,5.24
2018-03-23T20:01:44.754Z,5.27
2018-03-23T20:04:12.667Z,5.33
2018-03-23T20:06:40.596Z,5.35
2018-03-23T20:09:08.929Z,5.32
2018-03-23T20:11:37.057Z,5.33
2018-03-23T20:14:11.232Z,5.26
2018-03-23T20:16:39.127Z,5.22
2018-03-23T20:19:07.020Z,5.20
2018-03-23T20:21:34.980Z,5.21
2018-03-23T20:24:08.365Z,5.28
2018-03-23T20:26:36.459Z,5.30
2018-03-23T20:29:04.361Z,5.22
2018-03-23T20:31:37.854Z,5.22
2018-03-23T20:34:05.768Z,5.22
2018-03-23T20:36:33.722Z,5.16
2018-03-23T20:39:01.868Z,5.08
2018-03-23T20:41:29.761Z,5.01
2018-03-23T20:43:57.634Z,4.99
2018-03-23T20:46:25.731Z,4.99
2018-03-23T20:48:53.614Z,4.94
2018-03-23T20:51:21.498Z,4.91
2018-03-23T20:53:49.442Z,4.89
2018-03-23T20:56:17.323Z,4.90
2018-03-23T20:58:45.275Z,4.94
2018-03-23T21:01:13.201Z,4.96
2018-03-23T21:03:41.078Z,5.03
2018-03-23T21:06:08.949Z,5.05
2018-03-23T21:08:36.883Z,5.08
2018-03-23T21:11:04.793Z,5.10
2018-03-23T21:13:32.764Z,5.10
2018-03-23T21:16:00.899Z,5.10
2018-03-23T21:18:28.745Z,5.08
2018-03-23T21:20:56.623Z,5.08
2018-03-23T21:23:24.717Z,5.08
2018-03-23T21:25:52.591Z,5.11
2018-03-23T21:28:21.562Z,5.11
2018-03-23T21:30:50.195Z,5.09
2018-03-23T21:33:18.051Z,5.11
2018-03-23T21:35:45.880Z,5.09
2018-03-23T21:38:13.888Z,5.02
2018-03-23T21:40:41.780Z,4.97
2018-03-23T21:43:09.760Z,4.91
2018-03-23T21:45:37.574Z,4.89
2018-03-23T21:48:05.481Z,4.86
2018-03-23T21:50:33.167Z,4.88
2018-03-23T21:53:00.869Z,4.90
2018-03-23T21:55:28.521Z,4.90
2018-03-23T21:57:57.087Z,4.91
2018-03-23T22:00:24.755Z,4.96
2018-03-23T22:02:52.356Z,5.00
2018-03-23T22:05:19.920Z,4.98
2018-03-23T22:07:47.537Z,4.97
2018-03-23T22:10:15.173Z,4.97
2018-03-23T22:12:42.736Z,4.91
2018-03-23T22:15:10.407Z,4.92
2018-03-23T22:17:37.985Z,4.93
2018-03-23T22:20:05.652Z,4.89
2018-03-23T22:22:33.976Z,4.82
2018-03-23T22:25:01.588Z,4.76
2018-03-23T22:27:29.422Z,4.79
2018-03-23T22:29:57.244Z,4.82
2018-03-23T22:32:24.904Z,4.82
2018-03-23T22:34:52.567Z,4.77
2018-03-23T22:37:20.217Z,4.66
2018-03-23T22:39:47.899Z,4.59
2018-03-23T22:42:15.555Z,4.51
2018-03-23T22:44:43.255Z,4.46
2018-03-23T22:47:10.821Z,4.42
2018-03-23T22:49:38.570Z,4.39
2018-03-23T22:52:06.214Z,4.37
2018-03-23T22:54:33.807Z,4.34
2018-03-23T22:57:01.385Z,4.35
2018-03-23T22:59:29.323Z,4.29
2018-03-23T23:01:56.905Z,4.32
2018-03-23T23:04:24.467Z,4.35
2018-03-23T23:06:52.097Z,4.28
2018-03-23T23:09:21.732Z,4.27
2018-03-23T23:11:49.389Z,4.27
2018-03-23T23:14:17.311Z,4.12
2018-03-23T23:16:44.944Z,4.01
2018-03-23T23:19:12.583Z,3.95
2018-03-23T23:21:40.281Z,3.78
2018-03-23T23:24:07.915Z,3.68
2018-03-23T23:26:35.484Z,3.65
2018-03-23T23:29:03.113Z,3.29
2018-03-23T23:31:30.681Z,3.19
2018-03-23T23:33:58.332Z,3.07
2018-03-23T23:36:27.207Z,2.97
2018-03-23T23:38:54.768Z,2.95
2018-03-23T23:41:22.328Z,2.94
2018-03-23T23:43:49.937Z,2.86
2018-03-23T23:46:17.527Z,2.85
2018-03-23T23:48:45.145Z,2.89
2018-03-23T23:51:13.424Z,2.90
2018-03-23T23:53:41.055Z,2.95
2018-03-23T23:56:08.633Z,2.93
2018-03-23T23:58:36.265Z,2.94
